createdAt,value
2018-10-11T00:02:09.863Z,101527.72
2018-10-11T00:05:13.366Z,101536.60
2018-10-11T00:08:16.846Z,101540.72
2018-10-11T00:11:20.254Z,101535.22
2018-10-11T00:14:23.764Z,101534.89
2018-10-11T00:17:27.274Z,101537.65
2018-10-11T00:20:30.757Z,101529.12
2018-10-11T00:23:34.143Z,101532.13
2018-10-11T00:26:37.782Z,101532.35
2018-10-11T00:29:41.316Z,101536.55
2018-10-11T00:32:44.755Z,101537.52
2018-10-11T00:35:48.168Z,101539.60
2018-10-11T00:38:52.871Z,101540.59
2018-10-11T00:41:56.303Z,101548.77
2018-10-11T00:44:59.697Z,101547.25
2018-10-11T00:48:03.090Z,101543.35
2018-10-11T00:51:07.583Z,101540.95
2018-10-11T00:54:11.038Z,101540.27
2018-10-11T00:57:14.399Z,101537.18
2018-10-11T01:00:17.849Z,101539.97
2018-10-11T01:03:21.249Z,101540.77
2018-10-11T01:06:24.639Z,101531.95
2018-10-11T01:09:28.101Z,101525.43
2018-10-11T01:12:31.436Z,101518.02
2018-10-11T01:15:34.844Z,101514.01
2018-10-11T01:18:38.244Z,101504.59
2018-10-11T01:21:41.783Z,101505.16
2018-10-11T01:24:46.158Z,101506.99
2018-10-11T01:27:49.536Z,101497.84
2018-10-11T01:30:58.132Z,101497.61
2018-10-11T01:34:01.597Z,101495.98
2018-10-11T01:37:04.995Z,101500.93
2018-10-11T01:40:08.502Z,101498.98
2018-10-11T01:43:11.967Z,101491.95
2018-10-11T01:46:15.470Z,101493.38
2018-10-11T01:49:19.926Z,101483.57
2018-10-11T01:52:23.354Z,101473.59
2018-10-11T01:55:28.061Z,101473.28
2018-10-11T01:58:31.480Z,101466.24
2018-10-11T02:01:34.946Z,101465.10
2018-10-11T02:04:38.327Z,101463.14
2018-10-11T02:07:41.730Z,101465.06
2018-10-11T02:10:45.141Z,101463.86
2018-10-11T02:13:48.538Z,101463.43
2018-10-11T02:16:52.033Z,101465.31
2018-10-11T02:19:55.933Z,101466.42
2018-10-11T02:22:59.446Z,101471.77
2018-10-11T02:26:03.028Z,101467.79
2018-10-11T02:29:07.383Z,101473.67
2018-10-11T02:32:10.945Z,101479.27
2018-10-11T02:35:14.431Z,101480.60
2018-10-11T02:38:17.941Z,101484.93
2018-10-11T02:41:21.388Z,101483.25
2018-10-11T02:44:24.895Z,101484.14
2018-10-11T02:47:28.473Z,101492.00
2018-10-11T02:50:33.113Z,101491.69
2018-10-11T02:53:37.696Z,101490.74
2018-10-11T02:56:42.347Z,101490.66
2018-10-11T02:59:45.978Z,101496.15
2018-10-11T03:02:49.585Z,101498.22
2018-10-11T03:05:53.159Z,101510.68
2018-10-11T03:08:56.576Z,101516.52
2018-10-11T03:12:00.123Z,101512.60
2018-10-11T03:15:03.649Z,101504.98
2018-10-11T03:18:07.174Z,101500.51
2018-10-11T03:21:10.721Z,101501.77
2018-10-11T03:24:14.265Z,101496.04
2018-10-11T03:27:17.809Z,101494.58
2018-10-11T03:30:21.313Z,101491.48
2018-10-11T03:33:24.832Z,101492.36
2018-10-11T03:36:28.314Z,101490.98
2018-10-11T03:39:31.861Z,101495.68
2018-10-11T03:42:35.311Z,101500.87
2018-10-11T03:45:38.842Z,101503.91
2018-10-11T03:48:42.347Z,101497.41
2018-10-11T03:51:45.813Z,101507.91
2018-10-11T03:54:49.303Z,101513.03
2018-10-11T03:57:52.851Z,101510.11
2018-10-11T04:00:56.412Z,101511.16
2018-10-11T04:03:59.938Z,101511.84
2018-10-11T04:07:03.464Z,101515.67
2018-10-11T04:10:07.225Z,101518.59
2018-10-11T04:13:10.938Z,101521.61
2018-10-11T04:16:14.447Z,101521.68
2018-10-11T04:19:18.149Z,101531.17
2018-10-11T04:22:21.659Z,101530.74
2018-10-11T04:25:25.929Z,101532.80
2018-10-11T04:28:29.925Z,101540.92
2018-10-11T04:31:33.427Z,101552.91
2018-10-11T04:34:36.977Z,101556.22
2018-10-11T04:37:40.843Z,101549.73
2018-10-11T04:40:44.925Z,101542.67
2018-10-11T04:43:48.436Z,101541.40
2018-10-11T04:46:51.964Z,101537.20
2018-10-11T04:49:55.432Z,101543.84
2018-10-11T04:52:59.026Z,101545.08
2018-10-11T04:56:02.464Z,101550.50
2018-10-11T04:59:06.005Z,101558.16
2018-10-11T05:02:09.886Z,101560.40
2018-10-11T05:05:13.413Z,101555.94
2018-10-11T05:08:16.875Z,101559.11
2018-10-11T05:11:20.400Z,101560.67
2018-10-11T05:14:23.998Z,101565.01
2018-10-11T05:17:27.587Z,101561.01
2018-10-11T05:20:31.030Z,101561.13
2018-10-11T05:23:34.553Z,101570.10
2018-10-11T05:26:39.026Z,101584.35
2018-10-11T05:29:42.724Z,101587.10
2018-10-11T05:32:46.356Z,101582.41
2018-10-11T05:35:49.813Z,101589.55
2018-10-11T05:38:53.472Z,101599.15
2018-10-11T05:41:57.075Z,101607.44
2018-10-11T05:45:04.920Z,101601.99
2018-10-11T05:48:08.550Z,101598.87
2018-10-11T05:51:12.202Z,101610.60
2018-10-11T05:54:15.753Z,101614.20
2018-10-11T05:57:19.313Z,101610.83
2018-10-11T06:00:22.809Z,101612.33
2018-10-11T06:03:26.417Z,101616.35
2018-10-11T06:06:29.922Z,101632.10
2018-10-11T06:09:33.423Z,101630.19
2018-10-11T06:12:36.962Z,101638.81
2018-10-11T06:15:40.790Z,101646.45
2018-10-11T06:18:44.906Z,101650.82
2018-10-11T06:21:48.336Z,101662.47
2018-10-11T06:24:51.894Z,101662.65
2018-10-11T06:27:55.408Z,101663.71
2018-10-11T06:30:59.144Z,101672.22
2018-10-11T06:34:02.786Z,101672.43
2018-10-11T06:37:06.292Z,101681.28
2018-10-11T06:40:10.107Z,101686.17
2018-10-11T06:43:13.670Z,101689.98
2018-10-11T06:46:17.490Z,101699.08
2018-10-11T06:49:21.326Z,101699.24
2018-10-11T06:52:24.856Z,101691.45
2018-10-11T06:55:28.313Z,101690.70
2018-10-11T06:58:31.755Z,101692.55
2018-10-11T07:01:35.254Z,101693.93
2018-10-11T07:04:38.681Z,101695.17
2018-10-11T07:07:42.175Z,101701.09
2018-10-11T07:10:45.539Z,101714.19
2018-10-11T07:13:49.048Z,101717.24
2018-10-11T07:16:52.491Z,101720.77
2018-10-11T07:19:55.873Z,101721.02
2018-10-11T07:22:59.250Z,101722.75
2018-10-11T07:26:02.751Z,101725.67
2018-10-11T07:39:26.496Z,101741.66
2018-10-11T07:42:29.962Z,101756.57
2018-10-11T07:45:33.457Z,101750.63
2018-10-11T07:48:36.919Z,101750.59
2018-10-11T07:51:40.366Z,101752.93
2018-10-11T07:54:44.471Z,101750.36
2018-10-11T07:57:47.974Z,101755.57
2018-10-11T08:00:51.944Z,101755.34
2018-10-11T08:03:55.662Z,101759.68
2018-10-11T08:06:59.200Z,101757.70
2018-10-11T08:10:02.844Z,101761.49
2018-10-11T08:13:07.656Z,101766.03
2018-10-11T08:16:11.322Z,101765.82
2018-10-11T08:19:15.127Z,101755.73
2018-10-11T08:22:18.516Z,101764.47
2018-10-11T08:25:23.379Z,101760.58
2018-10-11T08:28:26.697Z,101762.40
2018-10-11T08:31:31.272Z,101761.56
2018-10-11T08:34:34.762Z,101752.69
2018-10-11T08:37:38.317Z,101752.81
2018-10-11T08:40:41.823Z,101753.85
2018-10-11T08:43:45.312Z,101752.36
2018-10-11T08:46:48.777Z,101757.52
2018-10-11T08:49:52.284Z,101765.80
2018-10-11T08:52:55.784Z,101765.87
2018-10-11T08:55:59.342Z,101769.25
2018-10-11T08:59:02.872Z,101763.18
2018-10-11T09:02:06.813Z,101768.24
2018-10-11T09:05:10.370Z,101767.16
2018-10-11T09:08:37.159Z,101765.71
2018-10-11T09:11:41.878Z,101761.60
2018-10-11T09:14:47.116Z,101754.99
2018-10-11T09:17:52.884Z,101757.11
2018-10-11T09:20:56.768Z,101746.25
2018-10-11T09:24:00.351Z,101744.12
2018-10-11T09:27:03.927Z,101741.96
2018-10-11T09:30:07.520Z,101738.19
2018-10-11T09:33:10.994Z,101736.29
2018-10-11T09:36:14.597Z,101732.60
2018-10-11T09:39:18.118Z,101734.78
2018-10-11T09:42:21.762Z,101733.09
2018-10-11T09:45:25.330Z,101726.69
2018-10-11T09:48:28.836Z,101728.81
2018-10-11T09:51:32.412Z,101734.27
2018-10-11T09:54:36.061Z,101736.28
2018-10-11T09:57:39.764Z,101738.63
2018-10-11T10:00:48.539Z,101736.45
2018-10-11T10:03:52.019Z,101737.15
2018-10-11T10:06:55.647Z,101736.83
2018-10-11T10:09:59.184Z,101736.43
2018-10-11T10:13:02.613Z,101735.61
2018-10-11T10:16:06.089Z,101737.32
2018-10-11T10:19:10.621Z,101737.57
2018-10-11T10:22:14.207Z,101740.11
2018-10-11T10:25:17.805Z,101737.16
2018-10-11T10:28:21.319Z,101739.77
2018-10-11T10:31:25.887Z,101737.69
2018-10-11T10:34:29.648Z,101731.20
2018-10-11T10:37:33.299Z,101730.06
2018-10-11T10:40:36.857Z,101732.95
2018-10-11T10:43:40.375Z,101736.97
2018-10-11T10:46:44.337Z,101725.17
2018-10-11T10:49:47.787Z,101724.24
2018-10-11T10:52:51.328Z,101724.85
2018-10-11T10:55:54.799Z,101719.56
2018-10-11T10:58:58.313Z,101721.69
2018-10-11T11:02:01.919Z,101720.32
2018-10-11T11:05:05.473Z,101723.63
2018-10-11T11:08:08.977Z,101713.57
2018-10-11T11:11:12.472Z,101703.84
2018-10-11T11:14:16.630Z,101698.12
2018-10-11T11:17:20.188Z,101691.74
2018-10-11T11:20:24.339Z,101694.43
2018-10-11T11:23:27.784Z,101688.72
2018-10-11T11:26:31.363Z,101681.08
2018-10-11T11:29:34.896Z,101676.65
2018-10-11T11:32:38.428Z,101675.88
2018-10-11T11:35:41.893Z,101679.18
2018-10-11T11:38:45.665Z,101681.45
2018-10-11T11:41:49.065Z,101676.18
2018-10-11T11:44:52.536Z,101671.21
2018-10-11T11:47:55.969Z,101666.73
2018-10-11T11:50:59.420Z,101655.94
2018-10-11T11:54:02.981Z,101652.00
2018-10-11T11:57:06.528Z,101653.73
2018-10-11T12:00:10.117Z,101654.25
2018-10-11T12:03:13.584Z,101649.40
2018-10-11T12:06:17.129Z,101651.71
2018-10-11T12:09:20.628Z,101662.64
2018-10-11T12:13:08.740Z,101662.21
2018-10-11T12:16:12.146Z,101672.09
2018-10-11T12:19:15.629Z,101665.96
2018-10-11T12:22:19.115Z,101668.50
2018-10-11T12:25:22.617Z,101671.23
2018-10-11T12:28:26.138Z,101680.88
2018-10-11T12:31:29.554Z,101677.72
2018-10-11T12:34:33.867Z,101675.92
2018-10-11T12:37:37.288Z,101672.56
2018-10-11T12:40:41.716Z,101673.88
2018-10-11T12:43:45.363Z,101674.17
2018-10-11T12:46:48.650Z,101668.73
2018-10-11T12:49:52.162Z,101666.17
2018-10-11T12:52:55.673Z,101664.58
2018-10-11T12:55:59.096Z,101667.88
2018-10-11T12:59:02.506Z,101667.46
2018-10-11T13:02:06.061Z,101668.67
2018-10-11T13:05:09.599Z,101668.85
2018-10-11T13:08:13.000Z,101670.12
2018-10-11T13:11:16.412Z,101667.64
2018-10-11T13:14:19.838Z,101664.23
2018-10-11T13:17:23.284Z,101659.29
2018-10-11T13:20:26.762Z,101663.75
2018-10-11T13:23:30.252Z,101664.95
2018-10-11T13:26:33.698Z,101666.98
2018-10-11T13:29:37.096Z,101665.25
2018-10-11T13:32:40.523Z,101657.79
2018-10-11T13:35:44.034Z,101662.80
2018-10-11T13:38:47.702Z,101656.37
2018-10-11T13:41:51.197Z,101652.58
2018-10-11T13:44:54.621Z,101647.48
2018-10-11T13:47:58.036Z,101654.48
2018-10-11T13:51:01.400Z,101643.19
2018-10-11T13:54:04.971Z,101632.16
2018-10-11T13:57:08.441Z,101629.97
2018-10-11T14:00:11.913Z,101642.37
2018-10-11T14:03:15.370Z,101658.93
2018-10-11T14:06:19.383Z,101659.94
2018-10-11T14:09:22.907Z,101658.34
2018-10-11T14:12:26.501Z,101668.92
2018-10-11T14:15:30.033Z,101668.34
2018-10-11T14:18:33.536Z,101658.33
2018-10-11T14:21:37.067Z,101651.04
2018-10-11T14:24:40.562Z,101642.79
2018-10-11T14:27:44.041Z,101650.65
2018-10-11T14:30:47.578Z,101660.11
2018-10-11T14:33:51.792Z,101654.34
2018-10-11T14:36:55.449Z,101660.61
2018-10-11T14:43:27.336Z,101650.68
2018-10-11T14:46:32.903Z,101641.37
2018-10-11T14:49:36.475Z,101636.84
2018-10-11T14:52:40.296Z,101641.92
2018-10-11T14:55:43.933Z,101633.61
2018-10-11T14:58:48.465Z,101645.68
2018-10-11T15:01:52.026Z,101639.89
2018-10-11T15:05:13.591Z,101638.35
2018-10-11T15:08:17.114Z,101641.00
2018-10-11T15:11:22.983Z,101635.91
2018-10-11T15:14:26.521Z,101636.69
2018-10-11T15:17:30.478Z,101637.80
2018-10-11T15:20:47.315Z,101639.85
2018-10-11T15:23:51.946Z,101635.64
2018-10-11T15:26:56.505Z,101627.96
2018-10-11T15:30:00.075Z,101625.45
2018-10-11T15:33:05.624Z,101629.18
2018-10-11T15:36:09.178Z,101635.38
2018-10-11T15:39:19.067Z,101637.90
2018-10-11T15:45:50.499Z,101642.00
2018-10-11T15:48:57.135Z,101645.08
2018-10-11T15:52:00.705Z,101639.90
2018-10-11T15:55:04.362Z,101642.77
2018-10-11T15:58:09.053Z,101640.88
2018-10-11T16:01:28.700Z,101642.53
2018-10-11T16:04:34.271Z,101642.29
2018-10-11T16:07:37.888Z,101636.87
2018-10-11T16:10:47.674Z,101646.91
2018-10-11T16:13:57.506Z,101650.52
2018-10-11T16:17:01.320Z,101651.88
2018-10-11T16:20:08.842Z,101651.68
2018-10-11T16:23:17.491Z,101651.13
2018-10-11T16:26:23.115Z,101655.98
2018-10-11T16:29:30.027Z,101653.13
2018-10-11T16:32:33.640Z,101649.31
2018-10-11T16:35:38.157Z,101649.25
2018-10-11T16:38:45.964Z,101653.32
2018-10-11T16:42:05.788Z,101661.30
2018-10-11T16:45:09.484Z,101678.02
2018-10-11T16:48:13.335Z,101684.47
2018-10-11T16:51:19.097Z,101681.27
2018-10-11T16:54:24.734Z,101681.56
2018-10-11T16:57:28.362Z,101684.87
2018-10-11T17:00:33.892Z,101690.04
2018-10-11T17:03:37.504Z,101691.40
2018-10-11T17:06:41.108Z,101700.79
2018-10-11T17:09:44.839Z,101709.73
2018-10-11T17:12:48.469Z,101712.11
2018-10-11T17:15:52.072Z,101716.85
2018-10-11T17:18:55.631Z,101723.63
2018-10-11T17:21:59.202Z,101729.27
2018-10-11T17:25:02.748Z,101732.19
2018-10-11T17:28:06.761Z,101739.71
2018-10-11T17:31:10.285Z,101734.59
2018-10-11T17:34:14.408Z,101731.21
2018-10-11T17:37:17.916Z,101739.50
2018-10-11T17:40:21.406Z,101742.13
2018-10-11T17:43:24.926Z,101739.35
2018-10-11T17:46:28.481Z,101737.30
2018-10-11T17:49:32.140Z,101748.52
2018-10-11T17:52:35.663Z,101746.86
2018-10-11T17:55:39.245Z,101745.73
2018-10-11T17:58:43.007Z,101741.78
2018-10-11T18:01:46.572Z,101740.44
2018-10-11T18:04:51.652Z,101738.09
2018-10-11T18:07:55.188Z,101737.46
2018-10-11T18:10:58.681Z,101741.55
2018-10-11T18:14:02.215Z,101745.40
2018-10-11T18:17:07.155Z,101747.43
2018-10-11T18:20:10.730Z,101743.58
2018-10-11T18:23:14.200Z,101744.17
2018-10-11T18:26:17.812Z,101739.56
2018-10-11T18:29:21.443Z,101732.53
2018-10-11T18:32:24.983Z,101741.00
2018-10-11T18:35:28.570Z,101732.75
2018-10-11T18:38:32.056Z,101727.26
2018-10-11T18:41:35.911Z,101731.22
2018-10-11T18:44:39.649Z,101734.67
2018-10-11T18:47:43.201Z,101733.64
2018-10-11T18:50:46.631Z,101733.03
2018-10-11T18:53:50.317Z,101740.39
2018-10-11T18:56:53.843Z,101735.15
2018-10-11T18:59:57.747Z,101738.87
2018-10-11T19:03:01.364Z,101735.57
2018-10-11T19:06:05.054Z,101742.78
2018-10-11T19:09:09.112Z,101743.85
2018-10-11T19:12:12.632Z,101746.90
2018-10-11T19:15:16.187Z,101755.76
2018-10-11T19:18:19.802Z,101754.01
2018-10-11T19:21:23.350Z,101762.84
2018-10-11T19:24:27.096Z,101767.62
2018-10-11T19:27:30.600Z,101772.44
2018-10-11T19:30:34.189Z,101777.73
2018-10-11T19:33:37.699Z,101792.22
2018-10-11T19:36:41.149Z,101791.72
2018-10-11T19:39:44.602Z,101794.52
2018-10-11T19:42:48.064Z,101788.85
2018-10-11T19:45:51.570Z,101771.77
2018-10-11T19:48:55.224Z,101776.70
2018-10-11T19:51:58.846Z,101772.30
2018-10-11T19:55:02.582Z,101765.57
2018-10-11T19:58:06.447Z,101771.33
2018-10-11T20:01:10.244Z,101772.61
2018-10-11T20:04:13.664Z,101783.67
2018-10-11T20:07:17.423Z,101784.84
2018-10-11T20:10:21.587Z,101783.24
2018-10-11T20:13:25.346Z,101798.61
2018-10-11T20:16:28.969Z,101807.56
2018-10-11T20:19:32.412Z,101811.17
2018-10-11T20:22:35.999Z,101809.20
2018-10-11T20:25:39.484Z,101802.68
2018-10-11T20:28:43.012Z,101806.82
2018-10-11T20:31:46.581Z,101811.33
2018-10-11T20:34:51.207Z,101816.32
2018-10-11T20:37:54.827Z,101816.82
2018-10-11T20:40:58.339Z,101830.43
2018-10-11T20:44:02.126Z,101831.33
2018-10-11T20:47:05.608Z,101838.49
2018-10-11T20:50:09.151Z,101843.46
2018-10-11T20:53:12.843Z,101850.58
2018-10-11T20:56:16.431Z,101852.15
2018-10-11T20:59:20.011Z,101853.09
2018-10-11T21:02:23.576Z,101857.37
2018-10-11T21:05:27.286Z,101859.71
2018-10-11T21:08:30.851Z,101862.61
2018-10-11T21:11:34.403Z,101849.30
2018-10-11T21:14:37.897Z,101853.12
2018-10-11T21:17:41.399Z,101855.89
2018-10-11T21:20:45.977Z,101850.78
2018-10-11T21:23:49.487Z,101848.67
2018-10-11T21:26:53.141Z,101847.64
2018-10-11T21:29:56.693Z,101852.17
2018-10-11T21:33:00.352Z,101848.31
2018-10-11T21:36:03.958Z,101849.65
2018-10-11T21:39:11.483Z,101849.65
2018-10-11T21:42:15.052Z,101842.80
2018-10-11T21:45:18.801Z,101848.10
2018-10-11T21:48:22.507Z,101847.25
2018-10-11T21:51:26.208Z,101844.32
2018-10-11T21:54:29.768Z,101847.01
2018-10-11T21:57:33.661Z,101857.38
2018-10-11T22:00:42.760Z,101864.71
2018-10-11T22:03:46.410Z,101867.51
2018-10-11T22:06:50.043Z,101865.79
2018-10-11T22:09:53.650Z,101866.52
2018-10-11T22:12:57.352Z,101871.08
2018-10-11T22:16:00.928Z,101879.26
2018-10-11T22:19:04.593Z,101895.63
2018-10-11T22:22:26.060Z,101903.83
2018-10-11T22:25:33.791Z,101904.59
2018-10-11T22:28:37.532Z,101908.34
2018-10-11T22:31:41.140Z,101909.48
2018-10-11T22:34:44.793Z,101908.55
2018-10-11T22:37:49.932Z,101923.16
2018-10-11T22:40:53.529Z,101918.08
2018-10-11T22:43:57.108Z,101923.87
2018-10-11T22:47:00.687Z,101918.95
2018-10-11T22:50:04.846Z,101922.28
2018-10-11T22:53:08.309Z,101925.64
2018-10-11T22:56:11.783Z,101923.87
2018-10-11T22:59:15.281Z,101928.29
2018-10-11T23:02:18.856Z,101940.44
2018-10-11T23:05:22.698Z,101939.13
2018-10-11T23:08:26.212Z,101938.22
2018-10-11T23:11:29.710Z,101953.25
2018-10-11T23:14:33.239Z,101946.18
2018-10-11T23:17:36.702Z,101944.69
2018-10-11T23:20:40.216Z,101943.70
2018-10-11T23:23:44.447Z,101953.58
2018-10-11T23:26:48.041Z,101958.34
2018-10-11T23:29:51.531Z,101955.98
2018-10-11T23:32:55.030Z,101950.81
2018-10-11T23:35:58.556Z,101971.51
2018-10-11T23:39:03.304Z,101978.21
2018-10-11T23:42:07.002Z,101996.50
2018-10-11T23:45:12.019Z,101992.33
2018-10-11T23:48:15.584Z,101996.62
2018-10-11T23:51:19.121Z,101996.93
2018-10-11T23:54:22.709Z,102014.83
2018-10-11T23:57:26.290Z,102008.77
